YGGO weather

Goonoo Goonoo Airport
New South Wales, Australia

Public forecast

Using degrees Celsius for public forecast. Weather courtesy of forecast.io.

METAR (pilot weather report)

Closest report is Tamworth Airport, 14.4 nm (26.7 km) NNW. Retrieved 2019/04/19 16:30 UTC (19 minutes ago):

YSTW 191630Z AUTO 13011KT 9999 // NCD 20/12 Q1024 RF00.0/000.0

TAF (pilot weather forecast)

Closest forecast is Tamworth Airport, 14.4 nm (26.7 km) NNW. Retrieved 2019/04/19 12:36 UTC (4 hours ago):

TAF TAF YSTW 191042Z 1912/2006 12010KT CAVOK FM191600 12010KT 9999 FEW010 FM200200 09012KT 9999 SCT050